sensor_id;sensor_type;location;lat;lon;timestamp;temperature;humidity
72380;SHT30;60354;47.798;12.472;2023-11-22T00:00:15;6.78;91.49
72380;SHT30;60354;47.798;12.472;2023-11-22T00:02:41;6.77;91.47
72380;SHT30;60354;47.798;12.472;2023-11-22T00:05:07;6.74;90.84
72380;SHT30;60354;47.798;12.472;2023-11-22T00:07:32;6.72;90.49
72380;SHT30;60354;47.798;12.472;2023-11-22T00:09:58;6.77;90.42
72380;SHT30;60354;47.798;12.472;2023-11-22T00:12:24;6.82;90.35
72380;SHT30;60354;47.798;12.472;2023-11-22T00:14:50;6.77;90.11
72380;SHT30;60354;47.798;12.472;2023-11-22T00:17:17;6.67;90.53
72380;SHT30;60354;47.798;12.472;2023-11-22T00:19:45;6.63;91.46
72380;SHT30;60354;47.798;12.472;2023-11-22T00:22:11;6.67;92.20
72380;SHT30;60354;47.798;12.472;2023-11-22T00:24:39;6.71;91.66
72380;SHT30;60354;47.798;12.472;2023-11-22T00:27:05;6.70;92.69
72380;SHT30;60354;47.798;12.472;2023-11-22T00:29:30;6.63;93.17
72380;SHT30;60354;47.798;12.472;2023-11-22T00:31:57;6.58;92.66
72380;SHT30;60354;47.798;12.472;2023-11-22T00:34:22;6.67;92.98
72380;SHT30;60354;47.798;12.472;2023-11-22T00:36:48;6.67;92.95
72380;SHT30;60354;47.798;12.472;2023-11-22T00:39:15;6.63;92.14
72380;SHT30;60354;47.798;12.472;2023-11-22T00:41:40;6.60;92.01
72380;SHT30;60354;47.798;12.472;2023-11-22T00:44:06;6.48;91.56
72380;SHT30;60354;47.798;12.472;2023-11-22T00:46:33;6.48;91.76
72380;SHT30;60354;47.798;12.472;2023-11-22T00:48:59;6.61;91.69
72380;SHT30;60354;47.798;12.472;2023-11-22T00:51:24;6.64;91.41
72380;SHT30;60354;47.798;12.472;2023-11-22T00:53:50;6.58;91.46
72380;SHT30;60354;47.798;12.472;2023-11-22T00:56:16;6.58;91.22
72380;SHT30;60354;47.798;12.472;2023-11-22T00:58:42;6.48;91.46
72380;SHT30;60354;47.798;12.472;2023-11-22T01:01:08;6.57;92.03
72380;SHT30;60354;47.798;12.472;2023-11-22T01:03:34;6.53;91.57
72380;SHT30;60354;47.798;12.472;2023-11-22T01:06:00;6.51;91.48
72380;SHT30;60354;47.798;12.472;2023-11-22T01:08:26;6.57;92.08
72380;SHT30;60354;47.798;12.472;2023-11-22T01:10:52;6.58;92.29
72380;SHT30;60354;47.798;12.472;2023-11-22T01:13:17;6.61;92.04
72380;SHT30;60354;47.798;12.472;2023-11-22T01:15:43;6.37;91.51
72380;SHT30;60354;47.798;12.472;2023-11-22T01:18:10;6.26;92.02
72380;SHT30;60354;47.798;12.472;2023-11-22T01:20:35;6.26;92.01
72380;SHT30;60354;47.798;12.472;2023-11-22T01:23:02;6.20;91.97
72380;SHT30;60354;47.798;12.472;2023-11-22T01:25:27;6.29;92.61
72380;SHT30;60354;47.798;12.472;2023-11-22T01:27:53;6.30;93.38
72380;SHT30;60354;47.798;12.472;2023-11-22T01:30:20;6.38;93.30
72380;SHT30;60354;47.798;12.472;2023-11-22T01:32:45;6.45;92.71
72380;SHT30;60354;47.798;12.472;2023-11-22T01:35:11;6.55;92.65
72380;SHT30;60354;47.798;12.472;2023-11-22T01:37:36;6.51;93.06
72380;SHT30;60354;47.798;12.472;2023-11-22T01:40:02;6.53;93.46
72380;SHT30;60354;47.798;12.472;2023-11-22T01:42:29;6.61;92.83
72380;SHT30;60354;47.798;12.472;2023-11-22T01:44:54;6.67;93.08
72380;SHT30;60354;47.798;12.472;2023-11-22T01:47:21;6.65;93.21
72380;SHT30;60354;47.798;12.472;2023-11-22T01:49:47;6.72;92.87
72380;SHT30;60354;47.798;12.472;2023-11-22T01:52:13;6.74;92.86
72380;SHT30;60354;47.798;12.472;2023-11-22T01:54:39;6.75;92.59
72380;SHT30;60354;47.798;12.472;2023-11-22T01:57:05;6.71;93.64
72380;SHT30;60354;47.798;12.472;2023-11-22T01:59:33;6.77;93.81
72380;SHT30;60354;47.798;12.472;2023-11-22T02:01:59;6.81;93.05
72380;SHT30;60354;47.798;12.472;2023-11-22T02:04:24;6.80;93.31
72380;SHT30;60354;47.798;12.472;2023-11-22T02:06:50;6.78;93.46
72380;SHT30;60354;47.798;12.472;2023-11-22T02:09:16;6.84;93.73
72380;SHT30;60354;47.798;12.472;2023-11-22T02:11:43;6.71;92.63
72380;SHT30;60354;47.798;12.472;2023-11-22T02:14:11;6.65;92.54
72380;SHT30;60354;47.798;12.472;2023-11-22T02:16:37;6.63;92.80
72380;SHT30;60354;47.798;12.472;2023-11-22T02:19:04;6.58;92.72
72380;SHT30;60354;47.798;12.472;2023-11-22T02:21:32;6.57;92.37
72380;SHT30;60354;47.798;12.472;2023-11-22T02:23:58;6.48;92.48
72380;SHT30;60354;47.798;12.472;2023-11-22T02:26:24;6.47;93.47
72380;SHT30;60354;47.798;12.472;2023-11-22T02:28:50;6.55;94.02
72380;SHT30;60354;47.798;12.472;2023-11-22T02:31:16;6.58;93.12
72380;SHT30;60354;47.798;12.472;2023-11-22T02:33:43;6.64;93.45
72380;SHT30;60354;47.798;12.472;2023-11-22T02:36:09;6.64;93.34
72380;SHT30;60354;47.798;12.472;2023-11-22T02:38:37;6.63;91.96
72380;SHT30;60354;47.798;12.472;2023-11-22T02:41:03;6.72;92.85
72380;SHT30;60354;47.798;12.472;2023-11-22T02:43:30;6.72;92.54
72380;SHT30;60354;47.798;12.472;2023-11-22T02:45:56;6.78;93.05
72380;SHT30;60354;47.798;12.472;2023-11-22T02:48:21;6.84;92.59
72380;SHT30;60354;47.798;12.472;2023-11-22T02:50:47;6.85;91.63
72380;SHT30;60354;47.798;12.472;2023-11-22T02:53:14;6.81;90.87
72380;SHT30;60354;47.798;12.472;2023-11-22T02:55:40;6.77;91.41
72380;SHT30;60354;47.798;12.472;2023-11-22T02:58:06;6.87;91.51
72380;SHT30;60354;47.798;12.472;2023-11-22T03:00:32;6.81;92.87
72380;SHT30;60354;47.798;12.472;2023-11-22T03:03:00;6.84;93.34
72380;SHT30;60354;47.798;12.472;2023-11-22T03:05:25;6.84;92.07
72380;SHT30;60354;47.798;12.472;2023-11-22T03:07:51;6.80;91.88
72380;SHT30;60354;47.798;12.472;2023-11-22T03:10:18;6.81;91.41
72380;SHT30;60354;47.798;12.472;2023-11-22T03:12:44;6.71;91.32
72380;SHT30;60354;47.798;12.472;2023-11-22T03:15:09;6.75;91.77
72380;SHT30;60354;47.798;12.472;2023-11-22T03:17:36;6.70;92.54
72380;SHT30;60354;47.798;12.472;2023-11-22T03:20:04;6.64;92.02
72380;SHT30;60354;47.798;12.472;2023-11-22T03:22:35;6.64;92.21
72380;SHT30;60354;47.798;12.472;2023-11-22T03:25:02;6.61;92.13
72380;SHT30;60354;47.798;12.472;2023-11-22T03:27:29;6.47;92.22
72380;SHT30;60354;47.798;12.472;2023-11-22T03:29:54;6.54;92.87
72380;SHT30;60354;47.798;12.472;2023-11-22T03:32:21;6.55;93.02
72380;SHT30;60354;47.798;12.472;2023-11-22T03:34:47;6.51;92.55
72380;SHT30;60354;47.798;12.472;2023-11-22T03:37:12;6.60;93.07
72380;SHT30;60354;47.798;12.472;2023-11-22T03:39:38;6.64;93.23
72380;SHT30;60354;47.798;12.472;2023-11-22T03:42:04;6.63;92.51
72380;SHT30;60354;47.798;12.472;2023-11-22T03:44:29;6.67;92.18
72380;SHT30;60354;47.798;12.472;2023-11-22T03:46:55;6.67;92.21
72380;SHT30;60354;47.798;12.472;2023-11-22T03:49:21;6.65;91.95
72380;SHT30;60354;47.798;12.472;2023-11-22T03:51:47;6.61;91.96
72380;SHT30;60354;47.798;12.472;2023-11-22T03:54:13;6.48;92.01
72380;SHT30;60354;47.798;12.472;2023-11-22T03:56:39;6.44;92.81
72380;SHT30;60354;47.798;12.472;2023-11-22T03:59:05;6.33;91.37
72380;SHT30;60354;47.798;12.472;2023-11-22T04:01:30;6.43;92.53
72380;SHT30;60354;47.798;12.472;2023-11-22T04:03:56;6.37;92.03
72380;SHT30;60354;47.798;12.472;2023-11-22T04:06:21;6.26;91.57
72380;SHT30;60354;47.798;12.472;2023-11-22T04:08:48;6.23;91.49
72380;SHT30;60354;47.798;12.472;2023-11-22T04:11:14;6.09;91.16
72380;SHT30;60354;47.798;12.472;2023-11-22T04:13:40;6.14;90.78
72380;SHT30;60354;47.798;12.472;2023-11-22T04:16:07;6.06;92.05
72380;SHT30;60354;47.798;12.472;2023-11-22T04:18:38;6.06;91.81
72380;SHT30;60354;47.798;12.472;2023-11-22T04:21:03;5.95;92.30
72380;SHT30;60354;47.798;12.472;2023-11-22T04:23:33;5.89;92.43
72380;SHT30;60354;47.798;12.472;2023-11-22T04:25:59;5.78;91.60
72380;SHT30;60354;47.798;12.472;2023-11-22T04:28:26;5.85;93.06
72380;SHT30;60354;47.798;12.472;2023-11-22T04:30:52;5.85;91.60
72380;SHT30;60354;47.798;12.472;2023-11-22T04:33:18;5.55;91.36
72380;SHT30;60354;47.798;12.472;2023-11-22T04:35:43;5.59;91.21
72380;SHT30;60354;47.798;12.472;2023-11-22T04:38:09;5.54;92.58
72380;SHT30;60354;47.798;12.472;2023-11-22T04:40:35;5.51;91.76
72380;SHT30;60354;47.798;12.472;2023-11-22T04:43:00;5.51;91.38
72380;SHT30;60354;47.798;12.472;2023-11-22T04:45:25;5.55;92.79
72380;SHT30;60354;47.798;12.472;2023-11-22T04:47:51;5.56;93.23
72380;SHT30;60354;47.798;12.472;2023-11-22T04:50:17;5.59;92.28
72380;SHT30;60354;47.798;12.472;2023-11-22T04:52:43;5.44;91.83
72380;SHT30;60354;47.798;12.472;2023-11-22T04:55:08;5.42;91.24
72380;SHT30;60354;47.798;12.472;2023-11-22T04:57:34;5.54;92.94
72380;SHT30;60354;47.798;12.472;2023-11-22T04:59:59;5.44;92.47
72380;SHT30;60354;47.798;12.472;2023-11-22T05:02:26;5.37;93.01
72380;SHT30;60354;47.798;12.472;2023-11-22T05:04:53;5.27;92.12
72380;SHT30;60354;47.798;12.472;2023-11-22T05:07:18;5.27;93.37
72380;SHT30;60354;47.798;12.472;2023-11-22T05:09:47;5.21;92.15
72380;SHT30;60354;47.798;12.472;2023-11-22T05:12:13;5.23;92.02
72380;SHT30;60354;47.798;12.472;2023-11-22T05:14:39;5.31;92.58
72380;SHT30;60354;47.798;12.472;2023-11-22T05:17:05;5.31;92.66
72380;SHT30;60354;47.798;12.472;2023-11-22T05:19:31;5.14;92.84
72380;SHT30;60354;47.798;12.472;2023-11-22T05:21:57;5.09;92.15
72380;SHT30;60354;47.798;12.472;2023-11-22T05:24:23;4.93;92.10
72380;SHT30;60354;47.798;12.472;2023-11-22T05:26:48;4.96;93.14
72380;SHT30;60354;47.798;12.472;2023-11-22T05:29:14;5.01;92.47
72380;SHT30;60354;47.798;12.472;2023-11-22T05:31:39;4.97;91.44
72380;SHT30;60354;47.798;12.472;2023-11-22T05:34:05;4.99;93.16
72380;SHT30;60354;47.798;12.472;2023-11-22T05:36:30;5.04;91.93
72380;SHT30;60354;47.798;12.472;2023-11-22T05:38:56;5.07;92.77
72380;SHT30;60354;47.798;12.472;2023-11-22T05:41:25;5.10;92.80
72380;SHT30;60354;47.798;12.472;2023-11-22T05:43:53;5.09;91.99
72380;SHT30;60354;47.798;12.472;2023-11-22T05:46:20;4.93;90.93
72380;SHT30;60354;47.798;12.472;2023-11-22T05:48:56;4.77;91.54
72380;SHT30;60354;47.798;12.472;2023-11-22T05:51:21;4.77;91.99
72380;SHT30;60354;47.798;12.472;2023-11-22T05:53:47;4.69;92.92
72380;SHT30;60354;47.798;12.472;2023-11-22T05:56:12;4.69;93.07
72380;SHT30;60354;47.798;12.472;2023-11-22T05:58:38;4.59;92.16
72380;SHT30;60354;47.798;12.472;2023-11-22T06:01:07;4.59;92.34
72380;SHT30;60354;47.798;12.472;2023-11-22T06:03:36;4.39;93.07
72380;SHT30;60354;47.798;12.472;2023-11-22T06:06:04;4.31;92.23
72380;SHT30;60354;47.798;12.472;2023-11-22T06:08:30;4.27;91.69
72380;SHT30;60354;47.798;12.472;2023-11-22T06:10:56;4.31;90.86
72380;SHT30;60354;47.798;12.472;2023-11-22T06:13:23;4.24;89.98
72380;SHT30;60354;47.798;12.472;2023-11-22T06:15:49;4.28;89.43
72380;SHT30;60354;47.798;12.472;2023-11-22T06:18:15;4.38;90.36
72380;SHT30;60354;47.798;12.472;2023-11-22T06:20:41;4.39;89.09
72380;SHT30;60354;47.798;12.472;2023-11-22T06:23:07;4.37;89.41
72380;SHT30;60354;47.798;12.472;2023-11-22T06:25:34;4.35;88.85
72380;SHT30;60354;47.798;12.472;2023-11-22T06:28:01;4.41;89.07
72380;SHT30;60354;47.798;12.472;2023-11-22T06:30:27;4.56;90.88
72380;SHT30;60354;47.798;12.472;2023-11-22T06:32:52;4.41;87.36
72380;SHT30;60354;47.798;12.472;2023-11-22T06:35:19;4.41;86.90
72380;SHT30;60354;47.798;12.472;2023-11-22T06:37:44;4.45;90.30
72380;SHT30;60354;47.798;12.472;2023-11-22T06:40:11;4.49;89.24
72380;SHT30;60354;47.798;12.472;2023-11-22T06:42:43;4.49;88.92
72380;SHT30;60354;47.798;12.472;2023-11-22T06:45:09;4.56;90.07
72380;SHT30;60354;47.798;12.472;2023-11-22T06:47:41;4.63;89.34
72380;SHT30;60354;47.798;12.472;2023-11-22T06:50:08;4.73;89.68
72380;SHT30;60354;47.798;12.472;2023-11-22T06:52:38;4.79;88.80
72380;SHT30;60354;47.798;12.472;2023-11-22T06:55:04;4.80;88.57
72380;SHT30;60354;47.798;12.472;2023-11-22T06:57:30;4.70;89.03
72380;SHT30;60354;47.798;12.472;2023-11-22T06:59:56;4.65;88.07
72380;SHT30;60354;47.798;12.472;2023-11-22T07:02:22;4.53;89.80
72380;SHT30;60354;47.798;12.472;2023-11-22T07:04:47;4.49;90.53
72380;SHT30;60354;47.798;12.472;2023-11-22T07:07:13;4.53;89.45
72380;SHT30;60354;47.798;12.472;2023-11-22T07:09:43;4.45;91.06
72380;SHT30;60354;47.798;12.472;2023-11-22T07:12:09;4.39;89.15
72380;SHT30;60354;47.798;12.472;2023-11-22T07:14:35;4.44;88.90
72380;SHT30;60354;47.798;12.472;2023-11-22T07:17:02;4.31;89.01
72380;SHT30;60354;47.798;12.472;2023-11-22T07:19:28;4.29;89.52
72380;SHT30;60354;47.798;12.472;2023-11-22T07:21:53;4.25;89.62
72380;SHT30;60354;47.798;12.472;2023-11-22T07:24:19;4.38;89.47
72380;SHT30;60354;47.798;12.472;2023-11-22T07:26:44;4.48;89.72
72380;SHT30;60354;47.798;12.472;2023-11-22T07:29:10;4.52;89.83
72380;SHT30;60354;47.798;12.472;2023-11-22T07:31:38;4.55;89.31
72380;SHT30;60354;47.798;12.472;2023-11-22T07:34:04;4.38;89.75
72380;SHT30;60354;47.798;12.472;2023-11-22T07:36:29;4.87;95.23
72380;SHT30;60354;47.798;12.472;2023-11-22T07:38:56;4.86;90.28
72380;SHT30;60354;47.798;12.472;2023-11-22T07:41:22;4.77;87.83
72380;SHT30;60354;47.798;12.472;2023-11-22T07:43:47;4.72;88.46
72380;SHT30;60354;47.798;12.472;2023-11-22T07:46:13;5.14;92.59
72380;SHT30;60354;47.798;12.472;2023-11-22T07:48:39;4.90;88.10
72380;SHT30;60354;47.798;12.472;2023-11-22T07:51:06;4.79;88.69
72380;SHT30;60354;47.798;12.472;2023-11-22T07:53:33;4.62;88.00
72380;SHT30;60354;47.798;12.472;2023-11-22T07:56:02;4.66;88.21
72380;SHT30;60354;47.798;12.472;2023-11-22T07:58:31;4.52;87.93
72380;SHT30;60354;47.798;12.472;2023-11-22T08:00:59;4.52;88.11
72380;SHT30;60354;47.798;12.472;2023-11-22T08:03:26;4.53;87.81
72380;SHT30;60354;47.798;12.472;2023-11-22T08:05:52;4.39;88.05
72380;SHT30;60354;47.798;12.472;2023-11-22T08:08:21;4.31;88.41
72380;SHT30;60354;47.798;12.472;2023-11-22T08:10:47;4.41;87.30
72380;SHT30;60354;47.798;12.472;2023-11-22T08:13:14;4.49;87.57
72380;SHT30;60354;47.798;12.472;2023-11-22T08:15:41;4.42;90.08
72380;SHT30;60354;47.798;12.472;2023-11-22T08:18:06;4.46;89.14
72380;SHT30;60354;47.798;12.472;2023-11-22T08:20:32;4.32;88.53
72380;SHT30;60354;47.798;12.472;2023-11-22T08:22:57;4.41;87.92
72380;SHT30;60354;47.798;12.472;2023-11-22T08:25:23;4.38;87.55
72380;SHT30;60354;47.798;12.472;2023-11-22T08:27:49;4.29;90.61
72380;SHT30;60354;47.798;12.472;2023-11-22T08:30:15;4.28;89.00
72380;SHT30;60354;47.798;12.472;2023-11-22T08:32:47;4.25;90.18
72380;SHT30;60354;47.798;12.472;2023-11-22T08:35:19;4.22;91.28
72380;SHT30;60354;47.798;12.472;2023-11-22T08:37:45;4.24;90.48
72380;SHT30;60354;47.798;12.472;2023-11-22T08:40:13;3.95;90.06
72380;SHT30;60354;47.798;12.472;2023-11-22T08:42:41;3.94;91.80
72380;SHT30;60354;47.798;12.472;2023-11-22T08:45:08;3.98;90.41
72380;SHT30;60354;47.798;12.472;2023-11-22T08:47:34;4.11;92.05
72380;SHT30;60354;47.798;12.472;2023-11-22T08:50:00;4.14;90.20
72380;SHT30;60354;47.798;12.472;2023-11-22T08:52:29;4.24;90.97
72380;SHT30;60354;47.798;12.472;2023-11-22T08:54:56;4.28;89.18
72380;SHT30;60354;47.798;12.472;2023-11-22T08:57:21;4.35;88.90
72380;SHT30;60354;47.798;12.472;2023-11-22T08:59:47;4.35;87.99
72380;SHT30;60354;47.798;12.472;2023-11-22T09:02:13;4.15;88.09
72380;SHT30;60354;47.798;12.472;2023-11-22T09:04:40;4.12;88.93
72380;SHT30;60354;47.798;12.472;2023-11-22T09:07:07;4.18;88.70
72380;SHT30;60354;47.798;12.472;2023-11-22T09:09:33;4.18;88.11
72380;SHT30;60354;47.798;12.472;2023-11-22T09:12:00;4.21;88.04
72380;SHT30;60354;47.798;12.472;2023-11-22T09:14:26;4.42;87.91
72380;SHT30;60354;47.798;12.472;2023-11-22T09:16:52;4.41;87.86
72380;SHT30;60354;47.798;12.472;2023-11-22T09:19:24;4.32;86.86
72380;SHT30;60354;47.798;12.472;2023-11-22T09:21:50;4.35;87.91
72380;SHT30;60354;47.798;12.472;2023-11-22T09:24:16;4.31;90.40
72380;SHT30;60354;47.798;12.472;2023-11-22T09:26:42;4.04;90.12
72380;SHT30;60354;47.798;12.472;2023-11-22T09:29:09;4.08;91.18
72380;SHT30;60354;47.798;12.472;2023-11-22T09:31:36;4.11;90.45
72380;SHT30;60354;47.798;12.472;2023-11-22T09:34:02;4.08;91.80
72380;SHT30;60354;47.798;12.472;2023-11-22T09:36:29;3.86;91.09
72380;SHT30;60354;47.798;12.472;2023-11-22T09:38:57;3.98;92.70
72380;SHT30;60354;47.798;12.472;2023-11-22T09:41:23;3.95;92.88
72380;SHT30;60354;47.798;12.472;2023-11-22T09:43:50;3.97;91.34
72380;SHT30;60354;47.798;12.472;2023-11-22T09:46:16;4.00;89.75
72380;SHT30;60354;47.798;12.472;2023-11-22T09:48:47;3.84;89.43
72380;SHT30;60354;47.798;12.472;2023-11-22T09:51:27;4.07;90.31
72380;SHT30;60354;47.798;12.472;2023-11-22T09:53:56;4.10;89.12
72380;SHT30;60354;47.798;12.472;2023-11-22T09:56:25;4.02;89.23
72380;SHT30;60354;47.798;12.472;2023-11-22T09:58:53;4.18;89.96
72380;SHT30;60354;47.798;12.472;2023-11-22T10:01:22;4.24;89.39
72380;SHT30;60354;47.798;12.472;2023-11-22T10:03:49;4.34;89.58
72380;SHT30;60354;47.798;12.472;2023-11-22T10:06:14;4.37;89.56
72380;SHT30;60354;47.798;12.472;2023-11-22T10:08:41;4.31;89.15
72380;SHT30;60354;47.798;12.472;2023-11-22T10:11:07;4.37;90.23
72380;SHT30;60354;47.798;12.472;2023-11-22T10:13:33;4.21;89.91
72380;SHT30;60354;47.798;12.472;2023-11-22T10:16:09;4.84;96.65
72380;SHT30;60354;47.798;12.472;2023-11-22T10:18:42;4.42;87.96
72380;SHT30;60354;47.798;12.472;2023-11-22T10:23:44;4.34;89.15
72380;SHT30;60354;47.798;12.472;2023-11-22T10:26:09;4.10;90.20
72380;SHT30;60354;47.798;12.472;2023-11-22T10:28:35;3.94;90.15
72380;SHT30;60354;47.798;12.472;2023-11-22T10:31:00;3.94;92.10
72380;SHT30;60354;47.798;12.472;2023-11-22T10:33:25;3.94;90.74
72380;SHT30;60354;47.798;12.472;2023-11-22T10:35:51;3.83;90.47
72380;SHT30;60354;47.798;12.472;2023-11-22T10:38:20;3.79;90.22
72380;SHT30;60354;47.798;12.472;2023-11-22T10:40:46;3.81;90.57
72380;SHT30;60354;47.798;12.472;2023-11-22T10:43:16;3.79;90.43
72380;SHT30;60354;47.798;12.472;2023-11-22T10:45:43;3.77;91.05
72380;SHT30;60354;47.798;12.472;2023-11-22T10:48:15;3.84;90.50
72380;SHT30;60354;47.798;12.472;2023-11-22T10:50:45;3.79;90.17
72380;SHT30;60354;47.798;12.472;2023-11-22T10:53:12;3.97;90.28
72380;SHT30;60354;47.798;12.472;2023-11-22T10:55:48;4.01;90.03
72380;SHT30;60354;47.798;12.472;2023-11-22T10:58:14;4.02;90.94
72380;SHT30;60354;47.798;12.472;2023-11-22T11:00:41;4.04;91.68
72380;SHT30;60354;47.798;12.472;2023-11-22T11:03:14;4.07;91.09
72380;SHT30;60354;47.798;12.472;2023-11-22T11:05:46;4.08;91.86
72380;SHT30;60354;47.798;12.472;2023-11-22T11:08:16;4.24;90.82
72380;SHT30;60354;47.798;12.472;2023-11-22T11:10:46;4.24;91.61
72380;SHT30;60354;47.798;12.472;2023-11-22T11:13:12;4.34;91.73
72380;SHT30;60354;47.798;12.472;2023-11-22T11:15:42;4.34;90.20
72380;SHT30;60354;47.798;12.472;2023-11-22T11:18:15;4.46;90.02
72380;SHT30;60354;47.798;12.472;2023-11-22T11:23:26;4.24;89.83
72380;SHT30;60354;47.798;12.472;2023-11-22T11:25:56;4.17;89.83
72380;SHT30;60354;47.798;12.472;2023-11-22T11:28:23;4.14;90.47
72380;SHT30;60354;47.798;12.472;2023-11-22T11:30:52;4.12;90.86
72380;SHT30;60354;47.798;12.472;2023-11-22T11:33:32;4.27;90.38
72380;SHT30;60354;47.798;12.472;2023-11-22T11:35:58;4.08;91.51
72380;SHT30;60354;47.798;12.472;2023-11-22T11:38:34;4.05;91.60
72380;SHT30;60354;47.798;12.472;2023-11-22T11:41:09;4.04;91.15
72380;SHT30;60354;47.798;12.472;2023-11-22T11:43:45;4.01;90.60
72380;SHT30;60354;47.798;12.472;2023-11-22T11:46:12;3.94;90.86
72380;SHT30;60354;47.798;12.472;2023-11-22T11:48:38;4.04;90.87
72380;SHT30;60354;47.798;12.472;2023-11-22T11:51:07;4.10;91.36
72380;SHT30;60354;47.798;12.472;2023-11-22T11:53:32;4.07;91.11
72380;SHT30;60354;47.798;12.472;2023-11-22T11:55:58;4.17;90.35
72380;SHT30;60354;47.798;12.472;2023-11-22T11:58:24;5.17;98.16
72380;SHT30;60354;47.798;12.472;2023-11-22T12:00:54;4.83;87.64
72380;SHT30;60354;47.798;12.472;2023-11-22T12:03:23;4.55;87.84
72380;SHT30;60354;47.798;12.472;2023-11-22T12:05:48;4.44;88.19
72380;SHT30;60354;47.798;12.472;2023-11-22T12:08:17;4.32;89.97
72380;SHT30;60354;47.798;12.472;2023-11-22T12:10:44;4.42;90.39
72380;SHT30;60354;47.798;12.472;2023-11-22T12:13:17;4.58;89.99
72380;SHT30;60354;47.798;12.472;2023-11-22T12:15:43;4.66;88.21
72380;SHT30;60354;47.798;12.472;2023-11-22T12:18:09;4.63;87.76
72380;SHT30;60354;47.798;12.472;2023-11-22T12:20:34;4.68;87.34
72380;SHT30;60354;47.798;12.472;2023-11-22T12:23:01;4.73;88.33
72380;SHT30;60354;47.798;12.472;2023-11-22T12:25:27;4.96;89.68
72380;SHT30;60354;47.798;12.472;2023-11-22T12:27:56;5.04;87.64
72380;SHT30;60354;47.798;12.472;2023-11-22T12:30:29;5.03;86.22
72380;SHT30;60354;47.798;12.472;2023-11-22T12:33:01;5.20;87.46
72380;SHT30;60354;47.798;12.472;2023-11-22T12:35:27;5.30;87.61
72380;SHT30;60354;47.798;12.472;2023-11-22T12:37:53;5.11;84.64
72380;SHT30;60354;47.798;12.472;2023-11-22T12:40:20;5.09;83.78
72380;SHT30;60354;47.798;12.472;2023-11-22T12:42:52;5.00;84.04
72380;SHT30;60354;47.798;12.472;2023-11-22T12:45:25;5.09;84.36
72380;SHT30;60354;47.798;12.472;2023-11-22T12:47:51;5.14;85.44
72380;SHT30;60354;47.798;12.472;2023-11-22T12:50:36;5.13;84.32
72380;SHT30;60354;47.798;12.472;2023-11-22T12:53:23;5.27;86.86
72380;SHT30;60354;47.798;12.472;2023-11-22T12:55:51;5.79;83.51
72380;SHT30;60354;47.798;12.472;2023-11-22T12:58:18;5.68;83.84
72380;SHT30;60354;47.798;12.472;2023-11-22T13:00:46;5.54;83.72
72380;SHT30;60354;47.798;12.472;2023-11-22T13:03:13;5.40;83.42
72380;SHT30;60354;47.798;12.472;2023-11-22T13:05:43;5.37;84.47
72380;SHT30;60354;47.798;12.472;2023-11-22T13:08:09;5.16;85.23
72380;SHT30;60354;47.798;12.472;2023-11-22T13:10:47;5.27;86.19
72380;SHT30;60354;47.798;12.472;2023-11-22T13:13:15;5.31;85.78
72380;SHT30;60354;47.798;12.472;2023-11-22T13:15:41;5.27;84.90
72380;SHT30;60354;47.798;12.472;2023-11-22T13:18:07;5.23;85.26
72380;SHT30;60354;47.798;12.472;2023-11-22T13:20:34;5.21;83.62
72380;SHT30;60354;47.798;12.472;2023-11-22T13:22:59;5.19;84.34
72380;SHT30;60354;47.798;12.472;2023-11-22T13:25:25;5.19;85.37
72380;SHT30;60354;47.798;12.472;2023-11-22T13:27:51;5.19;86.89
72380;SHT30;60354;47.798;12.472;2023-11-22T13:30:19;5.01;85.09
72380;SHT30;60354;47.798;12.472;2023-11-22T13:32:49;5.06;85.76
72380;SHT30;60354;47.798;12.472;2023-11-22T13:35:15;5.58;90.26
72380;SHT30;60354;47.798;12.472;2023-11-22T13:37:43;5.26;86.56
72380;SHT30;60354;47.798;12.472;2023-11-22T13:40:12;5.11;86.55
72380;SHT30;60354;47.798;12.472;2023-11-22T13:42:47;5.20;85.72
72380;SHT30;60354;47.798;12.472;2023-11-22T13:45:13;5.13;87.05
72380;SHT30;60354;47.798;12.472;2023-11-22T13:47:50;5.09;86.15
72380;SHT30;60354;47.798;12.472;2023-11-22T13:50:18;4.99;86.57
72380;SHT30;60354;47.798;12.472;2023-11-22T13:52:45;5.01;85.98
72380;SHT30;60354;47.798;12.472;2023-11-22T13:55:11;4.87;86.54
72380;SHT30;60354;47.798;12.472;2023-11-22T13:57:38;4.79;87.30
72380;SHT30;60354;47.798;12.472;2023-11-22T14:00:07;4.91;88.16
72380;SHT30;60354;47.798;12.472;2023-11-22T14:02:51;4.87;86.25
72380;SHT30;60354;47.798;12.472;2023-11-22T14:05:17;4.94;87.07
72380;SHT30;60354;47.798;12.472;2023-11-22T14:07:42;4.79;85.97
72380;SHT30;60354;47.798;12.472;2023-11-22T14:10:10;4.87;87.34
72380;SHT30;60354;47.798;12.472;2023-11-22T14:12:36;4.90;87.22
72380;SHT30;60354;47.798;12.472;2023-11-22T14:15:02;4.91;85.18
72380;SHT30;60354;47.798;12.472;2023-11-22T14:17:31;4.86;85.76
72380;SHT30;60354;47.798;12.472;2023-11-22T14:19:57;4.70;85.49
72380;SHT30;60354;47.798;12.472;2023-11-22T14:22:23;4.73;84.65
72380;SHT30;60354;47.798;12.472;2023-11-22T14:24:50;4.76;85.90
72380;SHT30;60354;47.798;12.472;2023-11-22T14:27:18;4.75;86.38
72380;SHT30;60354;47.798;12.472;2023-11-22T14:29:45;4.69;86.33
72380;SHT30;60354;47.798;12.472;2023-11-22T14:32:13;4.69;84.45
72380;SHT30;60354;47.798;12.472;2023-11-22T14:34:38;4.77;86.47
72380;SHT30;60354;47.798;12.472;2023-11-22T14:37:05;4.79;84.28
72380;SHT30;60354;47.798;12.472;2023-11-22T14:39:31;4.76;83.43
72380;SHT30;60354;47.798;12.472;2023-11-22T14:41:58;4.72;85.07
72380;SHT30;60354;47.798;12.472;2023-11-22T14:44:24;4.77;84.89
72380;SHT30;60354;47.798;12.472;2023-11-22T14:46:49;4.77;87.33
72380;SHT30;60354;47.798;12.472;2023-11-22T14:49:15;4.76;86.08
72380;SHT30;60354;47.798;12.472;2023-11-22T14:51:40;4.84;85.64
72380;SHT30;60354;47.798;12.472;2023-11-22T14:54:06;4.86;86.13
72380;SHT30;60354;47.798;12.472;2023-11-22T14:56:32;4.86;83.74
72380;SHT30;60354;47.798;12.472;2023-11-22T14:58:59;4.76;85.13
72380;SHT30;60354;47.798;12.472;2023-11-22T15:01:25;4.75;86.07
72380;SHT30;60354;47.798;12.472;2023-11-22T15:03:51;4.73;85.92
72380;SHT30;60354;47.798;12.472;2023-11-22T15:06:20;4.75;85.86
72380;SHT30;60354;47.798;12.472;2023-11-22T15:08:46;4.80;85.79
72380;SHT30;60354;47.798;12.472;2023-11-22T15:11:13;4.94;86.56
72380;SHT30;60354;47.798;12.472;2023-11-22T15:13:41;4.97;85.65
72380;SHT30;60354;47.798;12.472;2023-11-22T15:16:07;4.93;84.26
72380;SHT30;60354;47.798;12.472;2023-11-22T15:18:32;5.01;85.87
72380;SHT30;60354;47.798;12.472;2023-11-22T15:20:58;5.07;86.05
72380;SHT30;60354;47.798;12.472;2023-11-22T15:23:23;4.99;85.49
72380;SHT30;60354;47.798;12.472;2023-11-22T15:25:49;4.87;84.24
72380;SHT30;60354;47.798;12.472;2023-11-22T15:28:15;4.96;85.04
72380;SHT30;60354;47.798;12.472;2023-11-22T15:30:48;4.86;86.45
72380;SHT30;60354;47.798;12.472;2023-11-22T15:33:22;4.76;86.92